• Join FlightAware (Why Join?)
  • Login
  • US Flag 
03:34AM EDT


 

Airport Tracker/Info


-or-


 

Live Flight TrackerFlight Track Log ✈ SWA232 ✈ 23-Jun-2013 ✈ KPHL - KMDW

Flight Track Log - Related Links

Times and Time Zones

All times are in EDT time to prevent confusion due to time zone crossing. See the SWA232 flight status page for this flight to view local times or setup timezone preferences in your user account.

Time Position Orientation Groundspeed Altitude Reporting Facility
EDT Latitude Longitude Course Direction KTS MPH feet Rate Location/Type
09:55PM 39.8833 -75.2167 90° East 169 194 700  Level Philadelphia TRACON
09:56PM 39.8833 -75.1667 90° East 205 236 1,800 2,580 Climbing Philadelphia TRACON
09:57PM 39.9167 -75.1000 57° Northeast 229 264 5,100 2,880 Climbing Philadelphia TRACON
09:59PM 40.0217 -75.0969 North 252 290 10,000 1,680 Climbing New York Center
10:00PM 40.0700 -75.2003 301° West 275 316 10,000  Level New York Center
10:01PM 40.1117 -75.3061 297° West 324 373 10,100 480 Climbing New York Center
10:02PM 40.1519 -75.4011 299° West 334 384 11,000 1,500 Climbing New York Center
10:03PM 40.2033 -75.5186 300° West 344 396 13,100 1,980 Climbing New York Center
10:04PM 40.2597 -75.6206 306° West 344 396 15,000 1,980 Climbing New York Center
10:05PM 40.3286 -75.7206 312° West 354 407 17,100 960 Climbing New York Center
10:06PM 40.3892 -75.8122 311° West 371 427 17,000  Descending New York Center
10:07PM 40.4447 -75.9253 303° West 371 427 17,200 1,080 Climbing New York Center
10:08PM 40.4661 -76.0606 282° West 371 427 19,200 2,160 Climbing New York Center
10:09PM 40.4889 -76.2017 282° West 384 442 21,600 2,220 Climbing New York Center
10:10PM 40.5111 -76.3453 282° West 397 457 23,700 2,160 Climbing New York Center
10:11PM 40.5350 -76.5003 282° West 410 472 26,000 2,100 Climbing New York Center
10:12PM 40.5569 -76.6522 281° West 417 480 27,900 1,680 Climbing New York Center
10:13PM 40.5697 -76.8092 276° West 430 495 29,500 1,500 Climbing New York Center
10:14PM 40.5822 -76.9717 276° West 442 509 31,000 1,680 Climbing New York Center
10:15PM 40.5986 -77.1344 278° West 448 516 33,000 1,860 Climbing New York Center
10:16PM 40.6128 -77.2942 277° West 448 516 34,800 1,500 Climbing New York Center
10:18PM 40.6447 -77.6631 277° West 441 507 38,000 960 Climbing Cleveland Center
10:19PM 40.6550 -77.8189 275° West 441 507 38,000  Level Cleveland Center
10:20PM 40.6692 -77.9797 277° West 441 507 38,000  Level Cleveland Center
10:21PM 40.6811 -78.1408 276° West 441 507 38,000  Level Cleveland Center
10:22PM 40.6925 -78.2964 276° West 441 507 38,000  Level Cleveland Center
10:23PM 40.7039 -78.4550 275° West 441 507 38,000  Level Cleveland Center
10:24PM 40.7153 -78.6136 275° West 441 507 38,000  Level Cleveland Center
10:25PM 40.7283 -78.7747 276° West 441 507 38,000  Level Cleveland Center
10:26PM 40.7411 -78.9333 276° West 441 507 38,000  Level Cleveland Center
10:27PM 40.7536 -79.0947 276° West 441 507 38,000  Level Cleveland Center
10:28PM 40.7661 -79.2589 276° West 446 513 38,000  Level Cleveland Center
10:29PM 40.7783 -79.4261 276° West 452 520 38,000  Level Cleveland Center
10:30PM 40.7861 -79.5903 274° West 452 520 38,000  Level Cleveland Center
10:31PM 40.8000 -79.7575 276° West 457 526 38,000  Level Cleveland Center
10:32PM 40.8094 -79.9411 274° West 463 533 38,000  Level Cleveland Center
10:33PM 40.8167 -80.0975 274° West 463 533 38,000  Level Cleveland Center
10:34PM 40.8256 -80.2675 274° West 463 533 38,000  Level Cleveland Center
10:35PM 40.8364 -80.4294 275° West 457 526 38,000  Level Cleveland Center
10:36PM 40.8425 -80.5969 273° West 457 526 38,000  Level Cleveland Center
10:37PM 40.8550 -80.7808 275° West 463 533 38,000  Level Cleveland Center
10:38PM 40.8628 -80.9456 274° West 463 533 38,000  Level Cleveland Center
10:39PM 40.8581 -81.1183 268° West 463 533 38,000  Level Cleveland Center
10:40PM 40.8592 -81.2858 271° West 456 525 38,000  Level Cleveland Center
10:41PM 40.8622 -81.4533 271° West 456 525 38,000  Level Cleveland Center
10:42PM 40.8650 -81.6236 271° West 462 532 38,000  Level Cleveland Center
10:43PM 40.8653 -81.7939 270° West 462 532 38,000  Level Cleveland Center
10:44PM 40.8633 -81.9642 269° West 462 532 38,000  Level Cleveland Center
10:45PM 40.8678 -82.1181 272° West 462 532 38,000  Level Cleveland Center
10:46PM 40.8694 -82.2883 271° West 462 532 38,000  Level Cleveland Center
10:47PM 40.8667 -82.4583 269° West 462 532 38,000  Level Cleveland Center
10:48PM 40.8764 -82.6261 274° West 462 532 38,000  Level Cleveland Center
10:49PM 40.9086 -82.7947 284° West 462 532 38,000  Level Cleveland Center
10:50PM 40.9447 -82.9747 285° West 467 537 38,000  Level Cleveland Center
10:51PM 40.9767 -83.1381 285° West 467 537 38,000  Level Cleveland Center
10:52PM 41.0144 -83.2992 287° West 462 532 38,000  Level Cleveland Center
10:53PM 41.0481 -83.4631 285° West 462 532 38,000  Level Cleveland Center
10:54PM 41.0792 -83.6272 284° West 463 533 38,000  Level Cleveland Center
10:55PM 41.1022 -83.7742 282° West 456 525 38,000  Level Cleveland Center
10:56PM 41.1392 -83.9319 287° West 463 533 38,000  Level Chicago Center
10:57PM 41.1706 -84.0956 284° West 460 529 38,000  Level Chicago Center
10:58PM 41.2019 -84.2597 284° West 460 529 38,000  Level Chicago Center
10:59PM 41.2339 -84.4256 284° West 463 533 38,000  Level Chicago Center
11:00PM 41.2569 -84.5914 281° West 459 528 38,000  Level Chicago Center
11:01PM 41.2747 -84.7564 278° West 453 521 38,000 -240 Level Chicago Center
11:02PM 41.2922 -84.9156 278° West 439 505 37,600 -1,860 Descending Chicago Center
11:03PM 41.3094 -85.0750 278° West 434 499 34,300 -2,280 Descending Chicago Center
11:04PM 41.3267 -85.2431 278° West 448 516 33,000 -1,920 Descending Chicago Center
11:05PM 41.3453 -85.4103 278° West 453 521 30,400 -2,460 Descending Chicago Center
11:06PM 41.3619 -85.5733 278° West 443 510 28,100 -2,220 Descending Chicago Center
11:07PM 41.3778 -85.7294 278° West 424 488 25,900 -2,400 Descending Chicago Center
11:08PM 41.3933 -85.8797 278° West 414 476 23,200 -3,060 Descending Chicago Center
11:09PM 41.4119 -86.0614 278° West 411 473 19,700 -2,940 Descending Chicago Center
11:10PM 41.4253 -86.2092 277° West 400 460 17,300 -2,400 Descending Chicago Center
11:11PM 41.4397 -86.3508 278° West 388 447 14,900 -2,220 Descending Chicago Center
11:12PM 41.4533 -86.4861 278° West 373 429 12,800 -2,160 Descending Chicago Center
11:13PM 41.4653 -86.6147 277° West 355 409 10,600 -1,380 Descending Chicago Center
11:14PM 41.4794 -86.7328 279° West 340 391 10,000 -600 Descending Chicago Center
11:15PM 41.4864 -86.8433 275° West 302 348 9,500 -840 Descending Chicago Center
11:16PM 41.4981 -86.9700 277° West 288 331 8,300 -1,200 Descending Chicago Center
11:17PM 41.5081 -87.0742 277° West 285 328 7,100 -1,140 Descending Chicago Center
11:18PM 41.5172 -87.1758 277° West 280 322 6,000 -600 Descending Chicago Center
11:19PM 41.5481 -87.2669 294° West 277 319 6,000 -300 Level Chicago Center
11:20PM 41.5800 -87.3578 295° West 273 314 5,400 -960 Descending Chicago Center
11:21PM 41.6142 -87.4486 297° West 276 318 4,100 -720 Descending Chicago Center
11:22PM 41.6469 -87.5367 297° West 272 313 4,000 -240 Descending Chicago Center
11:23PM 41.6864 -87.6158 304° West 237 273 3,700 -600 Descending Chicago Center
11:24PM 41.7267 -87.6592 321° Northwest 212 244 2,900 -720 Descending Chicago Center
11:25PM 41.7761 -87.6783 344° North 194 223 2,300 -720 Descending Chicago Center
11:26PM 41.8133 -87.7022 334° Northwest 178 205 1,500 -600 Descending Chicago Center
11:27PM 41.7914 -87.7394 232° Southwest 153 176 1,100 -420 Descending Chicago Center
11:29PM 41.7833 -87.7500 334° Northwest  Level FlightAware Approximate